Time;durP1;ratioP1;P1;durP2;ratioP2;P2;SDS_P1;SDS_P2;PMS_P1;PMS_P2;Temp;Humidity;BMP_temperature;BMP_pressure;BME280_temperature;BME280_humidity;BME280_pressure;Samples;Min_cycle;Max_cycle;Signal;HPM_P1;HPM_P2
2022/05/09 00:01:05;;;;;;;3.28;2.13;;;;;;;14.43;50.02;99908.88;4993749;28;20370;-80
2022/05/09 00:03:31;;;;;;;5.28;2.38;;;;;;;14.40;50.38;99906.66;5009248;28;20059;-80
2022/05/09 00:05:57;;;;;;;6.97;2.78;;;;;;;14.34;50.59;99907.66;5009454;28;20071;-80
2022/05/09 00:08:22;;;;;;;4.13;2.55;;;;;;;14.32;50.53;99911.66;4994323;28;20489;-81
2022/05/09 00:10:48;;;;;;;5.03;2.53;;;;;;;14.33;50.50;99902.53;5012508;28;20037;-80
2022/05/09 00:13:13;;;;;;;8.10;2.90;;;;;;;14.26;50.66;99900.00;5024208;28;20109;-80
2022/05/09 00:15:38;;;;;;;4.85;2.80;;;;;;;14.19;50.96;99894.81;5029075;28;20025;-80
2022/05/09 00:18:04;;;;;;;5.07;2.58;;;;;;;14.22;50.83;99893.47;5009880;28;20049;-80
2022/05/09 00:20:29;;;;;;;7.25;2.55;;;;;;;14.21;50.59;99898.06;5009743;28;20041;-80
2022/05/09 00:22:55;;;;;;;3.45;2.42;;;;;;;14.12;50.85;99898.69;5012574;28;20033;-80
2022/05/09 00:25:26;;;;;;;6.32;3.22;;;;;;;14.05;50.91;99892.69;4992079;28;20033;-80
2022/05/09 00:27:52;;;;;;;7.05;2.50;;;;;;;14.04;51.38;99901.81;5029890;28;20406;-81
2022/05/09 00:30:18;;;;;;;7.30;2.83;;;;;;;14.07;51.17;99901.28;4991870;28;20479;-80
2022/05/09 00:32:44;;;;;;;6.22;2.33;;;;;;;14.06;51.21;99899.69;5007947;28;20129;-80
2022/05/09 00:35:11;;;;;;;7.30;3.13;;;;;;;14.07;51.03;99895.94;4988190;28;20072;-80
2022/05/09 00:37:37;;;;;;;4.80;2.58;;;;;;;13.99;51.49;99896.34;5007728;28;20034;-80
2022/05/09 00:40:05;;;;;;;9.73;2.95;;;;;;;13.97;50.94;99890.41;5028640;28;20289;-81
2022/05/09 00:42:31;;;;;;;6.18;2.83;;;;;;;13.99;51.13;99905.22;5014895;28;20540;-80
2022/05/09 00:44:56;;;;;;;7.65;3.05;;;;;;;13.97;51.28;99904.66;4992211;28;20160;-81
2022/05/09 00:47:22;;;;;;;8.88;2.80;;;;;;;13.93;50.87;99900.00;5008724;28;20397;-80
2022/05/09 00:49:57;;;;;;;5.13;2.85;;;;;;;13.81;51.52;99896.59;4996736;28;20025;-81
2022/05/09 00:52:44;;;;;;;8.65;2.63;;;;;;;13.91;51.54;99904.81;5009565;28;20033;-80
2022/05/09 00:55:18;;;;;;;5.47;2.25;;;;;;;13.89;51.69;99906.94;4992172;28;20140;-81
2022/05/09 00:58:25;;;;;;;6.22;3.00;;;;;;;13.83;51.56;99911.38;5010359;28;20124;-81
2022/05/09 01:00:52;;;;;;;4.30;2.63;;;;;;;13.80;51.61;99913.75;5002906;28;20080;-80
2022/05/09 01:03:22;;;;;;;7.10;2.50;;;;;;;13.79;51.74;99915.63;4992183;28;20096;-81
2022/05/09 01:05:52;;;;;;;7.00;3.17;;;;;;;13.80;51.34;99908.38;5012135;28;20042;-81
2022/05/09 01:08:19;;;;;;;9.95;3.10;;;;;;;13.82;51.15;99911.66;5006262;28;20044;-81
2022/05/09 01:10:47;;;;;;;3.72;2.30;;;;;;;13.71;51.41;99913.34;5006374;28;20014;-80
2022/05/09 01:13:15;;;;;;;3.80;2.47;;;;;;;13.76;51.54;99907.25;5028490;28;20025;-81
2022/05/09 01:15:43;;;;;;;4.57;3.08;;;;;;;13.66;51.54;99909.75;5004031;28;20042;-80
2022/05/09 01:18:11;;;;;;;6.78;2.72;;;;;;;13.61;51.72;99912.38;5006404;28;20508;-81
2022/05/09 01:20:37;;;;;;;9.40;2.97;;;;;;;13.62;51.71;99906.75;5029388;28;20445;-81
2022/05/09 01:23:03;;;;;;;5.88;3.40;;;;;;;13.53;52.05;99905.50;4992738;28;20067;-81
2022/05/09 01:25:29;;;;;;;9.68;2.97;;;;;;;13.40;51.82;99892.41;5025184;28;20508;-80
2022/05/09 01:27:55;;;;;;;6.47;2.85;;;;;;;13.63;51.62;99915.63;4987985;28;20042;-80
2022/05/09 01:30:22;;;;;;;4.78;2.30;;;;;;;13.71;51.47;99907.97;5026092;28;20029;-80
2022/05/09 01:33:12;;;;;;;4.85;2.72;;;;;;;13.49;52.05;99910.56;4997306;28;20041;-80
2022/05/09 01:35:45;;;;;;;6.22;2.80;;;;;;;13.49;52.07;99905.19;5028256;28;20087;-80
2022/05/09 01:38:22;;;;;;;3.22;2.40;;;;;;;13.44;51.91;99907.78;5010604;28;20624;-80
2022/05/09 01:40:47;;;;;;;7.47;3.03;;;;;;;13.40;52.11;99913.84;5023372;28;20057;-80
2022/05/09 01:43:12;;;;;;;3.83;3.08;;;;;;;13.26;52.36;99907.97;5029401;28;20117;-80
2022/05/09 01:45:37;;;;;;;5.35;2.72;;;;;;;13.32;52.44;99915.03;4990018;28;20497;-80
2022/05/09 01:50:48;;;;;;;4.55;2.72;;;;;;;13.47;51.66;99920.72;5020348;28;20033;-81
2022/05/09 01:53:13;;;;;;;7.25;3.30;;;;;;;13.47;51.78;99901.94;5033657;28;20033;-80
2022/05/09 01:55:38;;;;;;;6.18;2.80;;;;;;;13.40;51.63;99914.69;5031741;28;20037;-80
2022/05/09 01:58:05;;;;;;;6.35;3.63;;;;;;;13.40;51.96;99912.00;4981494;28;20029;-81
2022/05/09 02:00:32;;;;;;;8.02;3.10;;;;;;;13.46;52.08;99915.56;4991691;28;20052;-81
2022/05/09 02:02:58;;;;;;;5.78;2.78;;;;;;;13.48;51.71;99914.28;5022186;28;20084;-80
2022/05/09 02:05:23;;;;;;;6.97;3.55;;;;;;;13.23;52.51;99913.00;5005226;28;20053;-80
2022/05/09 02:07:48;;;;;;;6.28;3.10;;;;;;;13.27;52.05;99917.66;4990072;28;20041;-80
2022/05/09 02:10:14;;;;;;;5.40;3.20;;;;;;;13.30;51.86;99914.47;4977286;28;20114;-80
2022/05/09 02:12:39;;;;;;;7.60;3.45;;;;;;;13.20;52.21;99906.25;4996355;28;20056;-80
2022/05/09 02:15:07;;;;;;;6.97;3.10;;;;;;;13.23;52.13;99916.50;5028951;28;20176;-80
2022/05/09 02:17:33;;;;;;;9.70;3.45;;;;;;;13.19;52.12;99918.00;5025863;28;20044;-80
2022/05/09 02:19:58;;;;;;;8.88;2.80;;;;;;;13.38;51.71;99921.31;4976817;28;20041;-80
2022/05/09 02:22:23;;;;;;;7.05;4.25;;;;;;;13.23;52.17;99911.16;4989996;28;20057;-80
2022/05/09 02:24:49;;;;;;;6.13;3.47;;;;;;;13.25;51.97;99918.94;4996826;28;20510;-80
2022/05/09 02:27:16;;;;;;;10.77;3.75;;;;;;;13.18;52.44;99921.75;4989541;28;20032;-80
2022/05/09 02:29:42;;;;;;;9.98;3.50;;;;;;;13.10;52.76;99921.31;5005974;28;20034;-80
2022/05/09 02:32:09;;;;;;;6.30;3.30;;;;;;;13.10;52.71;99911.44;5023004;28;20044;-80
2022/05/09 02:34:34;;;;;;;7.32;3.40;;;;;;;13.27;52.09;99919.50;5027844;28;20120;-80
2022/05/09 02:37:00;;;;;;;11.55;3.33;;;;;;;13.18;52.59;99912.91;5002744;28;20322;-80
2022/05/09 02:39:26;;;;;;;7.20;2.97;;;;;;;13.03;52.76;99915.25;4999719;28;20575;-80
2022/05/09 02:41:51;;;;;;;5.90;3.22;;;;;;;12.98;52.46;99915.13;5024376;28;20393;-80
2022/05/09 02:44:16;;;;;;;8.45;3.17;;;;;;;13.04;52.85;99911.53;4983591;28;20037;-80
2022/05/09 02:46:44;;;;;;;6.22;3.22;;;;;;;12.94;53.06;99922.03;4975545;28;20172;-80
2022/05/09 02:49:10;;;;;;;6.65;3.00;;;;;;;12.82;53.23;99910.53;5002345;28;20473;-80
2022/05/09 02:51:36;;;;;;;5.32;3.08;;;;;;;12.82;53.29;99924.72;5007575;28;20034;-80
2022/05/09 02:54:02;;;;;;;4.80;2.85;;;;;;;12.71;53.67;99917.56;5028248;28;20033;-80
2022/05/09 02:56:27;;;;;;;11.48;3.45;;;;;;;12.91;52.60;99912.59;5008882;28;20660;-80
2022/05/09 02:58:53;;;;;;;6.50;3.20;;;;;;;12.77;53.46;99908.56;5003139;28;20418;-80
2022/05/09 03:01:19;;;;;;;4.53;3.00;;;;;;;12.92;53.27;99911.56;5006089;28;20045;-80
2022/05/09 03:06:28;;;;;;;3.50;2.70;;;;;;;12.79;53.57;99909.97;5026020;28;20407;-80
2022/05/09 03:08:53;;;;;;;6.68;3.33;;;;;;;12.88;53.23;99917.63;4980522;28;20033;-80
2022/05/09 03:11:18;;;;;;;5.18;2.78;;;;;;;12.79;52.86;99919.88;5023106;28;20135;-80
2022/05/09 03:13:44;;;;;;;6.55;3.33;;;;;;;12.79;53.28;99919.88;4995018;28;20412;-80
2022/05/09 03:16:09;;;;;;;5.78;2.90;;;;;;;12.76;53.27;99917.66;5006743;28;20042;-80
2022/05/09 03:18:36;;;;;;;5.78;3.00;;;;;;;12.65;52.98;99913.94;4985883;28;20040;-80
2022/05/09 03:21:01;;;;;;;5.15;3.40;;;;;;;12.61;53.51;99915.47;5024804;28;20111;-80
2022/05/09 03:23:27;;;;;;;6.63;3.10;;;;;;;12.69;53.53;99908.91;5026141;28;20112;-80
2022/05/09 03:25:52;;;;;;;4.57;3.58;;;;;;;12.74;53.82;99911.72;5026854;28;20026;-80
2022/05/09 03:28:22;;;;;;;8.85;4.13;;;;;;;12.55;54.04;99921.78;4981531;28;20080;-80
2022/05/09 03:30:49;;;;;;;4.57;2.88;;;;;;;12.55;53.91;99918.28;4990252;28;20443;-80
2022/05/09 03:33:15;;;;;;;7.00;3.40;;;;;;;12.67;53.42;99916.38;4992297;28;20082;-80
2022/05/09 03:35:40;;;;;;;4.35;3.08;;;;;;;12.67;53.13;99921.72;4989401;28;20034;-80
2022/05/09 03:38:06;;;;;;;8.05;3.60;;;;;;;12.49;54.16;99925.38;5007757;28;20037;-80
2022/05/09 03:40:31;;;;;;;8.52;3.45;;;;;;;12.52;53.95;99919.56;5007132;28;20459;-80
2022/05/09 03:42:59;;;;;;;7.28;3.08;;;;;;;12.61;53.30;99920.00;5021849;28;20113;-80
2022/05/09 03:45:25;;;;;;;5.07;2.83;;;;;;;12.60;53.56;99913.03;4990853;28;20501;-80
2022/05/09 03:47:50;;;;;;;5.68;4.15;;;;;;;12.57;53.87;99921.53;4998934;28;20034;-80
2022/05/09 03:50:16;;;;;;;7.32;3.33;;;;;;;12.50;53.56;99916.28;4985189;28;20042;-80
2022/05/09 03:52:42;;;;;;;5.00;3.70;;;;;;;12.39;54.39;99918.97;5007231;28;20388;-80
2022/05/09 03:55:07;;;;;;;6.10;3.35;;;;;;;12.53;53.60;99917.69;4998345;28;20037;-80
2022/05/09 03:57:33;;;;;;;6.53;3.22;;;;;;;12.50;53.97;99916.28;4994445;28;20037;-80
2022/05/09 04:00:06;;;;;;;6.43;3.00;;;;;;;12.34;54.28;99918.88;5004407;28;20091;-80
2022/05/09 04:02:32;;;;;;;4.60;3.15;;;;;;;12.45;53.34;99918.06;5001731;28;20033;-80
2022/05/09 04:04:57;;;;;;;7.53;3.20;;;;;;;12.55;53.71;99912.91;5003673;28;20477;-80
2022/05/09 04:07:22;;;;;;;5.32;3.90;;;;;;;12.20;54.53;99909.44;5026111;28;20041;-80
2022/05/09 04:09:48;;;;;;;4.25;3.20;;;;;;;12.23;54.57;99912.44;4976156;28;20037;-80
2022/05/09 04:12:13;;;;;;;5.07;3.35;;;;;;;12.25;54.48;99921.09;5013121;28;21355;-80
2022/05/09 04:17:22;;;;;;;5.13;3.55;;;;;;;12.32;54.44;99919.09;5007731;28;20040;-80
2022/05/09 04:19:47;;;;;;;5.63;3.22;;;;;;;12.35;54.54;99923.16;5002066;28;20421;-80
2022/05/09 04:22:13;;;;;;;5.60;3.17;;;;;;;12.42;54.61;99924.69;5028889;28;20063;-80
2022/05/09 04:24:38;;;;;;;9.38;3.28;;;;;;;12.54;53.75;99917.44;4990087;28;20025;-80
2022/05/09 04:27:04;;;;;;;7.65;3.75;;;;;;;12.60;54.26;99927.22;5001929;28;20564;-80
2022/05/09 04:29:29;;;;;;;5.53;3.50;;;;;;;12.61;53.63;99925.34;4985323;28;20025;-80
2022/05/09 04:31:55;;;;;;;21.15;4.57;;;;;;;12.29;54.74;99927.59;4983233;28;20558;-81
2022/05/09 04:34:21;;;;;;;11.20;4.60;;;;;;;12.15;55.93;99912.00;4989012;28;20034;-81
2022/05/09 04:36:46;;;;;;;9.00;4.28;;;;;;;12.21;56.23;99919.91;4987054;28;20032;-81
2022/05/09 04:39:11;;;;;;;9.00;4.53;;;;;;;12.23;55.72;99922.38;5005752;28;20030;-82
2022/05/09 04:41:37;;;;;;;11.80;3.63;;;;;;;12.47;55.60;99918.63;4980398;28;20041;-81
2022/05/09 04:44:05;;;;;;;10.30;4.53;;;;;;;12.57;55.05;99921.53;5023759;28;20042;-81
2022/05/09 04:46:32;;;;;;;9.25;3.75;;;;;;;12.54;55.51;99933.53;5021139;28;20091;-81
2022/05/09 04:48:57;;;;;;;7.20;4.32;;;;;;;12.66;55.04;99933.50;5025843;28;20105;-81
2022/05/09 04:51:22;;;;;;;7.45;3.63;;;;;;;12.68;55.00;99926.88;5026633;28;20541;-81
2022/05/09 04:53:49;;;;;;;7.25;3.42;;;;;;;12.67;55.55;99932.44;5011890;28;20401;-81
2022/05/09 04:56:15;;;;;;;6.97;3.42;;;;;;;12.79;54.93;99930.59;4993983;28;20133;-81
2022/05/09 04:58:41;;;;;;;8.23;3.63;;;;;;;12.76;54.94;99920.31;4994457;28;20061;-82
2022/05/09 05:01:06;;;;;;;6.97;4.15;;;;;;;12.18;57.76;99927.59;5003726;28;20508;-81
2022/05/09 05:03:31;;;;;;;9.10;4.18;;;;;;;11.68;59.80;99937.88;4991563;28;20037;-81
2022/05/09 05:05:57;;;;;;;5.57;4.53;;;;;;;11.92;59.03;99936.88;5006965;28;20037;-80
2022/05/09 05:08:22;;;;;;;9.25;4.10;;;;;;;12.59;57.27;99938.16;4996230;28;20545;-80
2022/05/09 05:10:52;;;;;;;11.75;4.38;;;;;;;13.03;55.57;99942.88;5007180;28;20029;-80
2022/05/09 05:13:18;;;;;;;8.85;4.00;;;;;;;13.25;54.75;99938.53;4998857;28;20033;-80
2022/05/09 05:15:43;;;;;;;4.75;3.80;;;;;;;13.33;54.44;99940.81;5019550;28;20070;-80
2022/05/09 05:18:09;;;;;;;5.13;3.58;;;;;;;13.37;54.71;99933.91;5030207;28;20037;-81
2022/05/09 05:20:35;;;;;;;6.25;3.80;;;;;;;13.39;54.94;99934.50;5026145;28;20057;-80
2022/05/09 05:23:00;;;;;;;8.60;3.78;;;;;;;13.43;54.64;99937.53;4993975;28;20032;-80
2022/05/09 05:25:29;;;;;;;7.20;3.97;;;;;;;13.42;54.61;99939.38;5004163;28;20025;-80
2022/05/09 05:27:55;;;;;;;5.88;3.38;;;;;;;13.39;54.73;99939.84;5008612;28;20033;-80
2022/05/09 05:30:21;;;;;;;7.15;4.90;;;;;;;13.38;54.94;99945.47;5021853;28;20389;-80
2022/05/09 05:32:48;;;;;;;6.05;3.42;;;;;;;13.32;55.39;99944.53;5005590;28;20053;-81
2022/05/09 05:35:17;;;;;;;5.68;3.88;;;;;;;13.34;54.90;99950.50;5004067;28;20040;-81
2022/05/09 05:37:43;;;;;;;7.00;3.28;;;;;;;13.31;55.12;99939.41;5027362;28;20045;-80
2022/05/09 05:40:09;;;;;;;8.10;3.65;;;;;;;13.32;55.13;99941.84;5036615;28;20037;-80
2022/05/09 05:42:39;;;;;;;5.70;3.80;;;;;;;13.38;55.69;99943.59;5014700;28;20091;-80
2022/05/09 05:45:05;;;;;;;6.47;3.78;;;;;;;13.38;54.90;99940.91;5019407;28;20029;-80
2022/05/09 05:47:30;;;;;;;8.88;3.67;;;;;;;13.44;55.31;99942.63;5012310;28;20070;-80
2022/05/09 05:49:57;;;;;;;7.47;3.50;;;;;;;13.43;55.09;99946.34;5010171;28;20029;-80
2022/05/09 05:52:22;;;;;;;5.68;3.88;;;;;;;13.46;54.90;99947.75;4969059;28;20159;-80
2022/05/09 05:54:47;;;;;;;6.50;3.67;;;;;;;13.45;55.10;99935.41;5028732;28;20116;-80
2022/05/09 05:57:20;;;;;;;5.15;4.07;;;;;;;13.56;55.49;99958.69;4997849;28;20025;-80
2022/05/09 05:59:50;;;;;;;8.23;3.78;;;;;;;13.57;55.28;99941.53;5031699;28;20037;-80
2022/05/09 06:02:16;;;;;;;6.43;3.97;;;;;;;13.60;55.71;99949.09;4988922;28;20072;-80
2022/05/09 06:04:41;;;;;;;6.22;3.38;;;;;;;13.66;55.21;99944.63;5009217;28;20143;-80
2022/05/09 06:07:06;;;;;;;4.00;3.40;;;;;;;13.73;55.05;99935.38;4994159;28;20029;-80
2022/05/09 06:09:32;;;;;;;5.22;3.67;;;;;;;13.76;55.15;99947.50;5004700;28;20030;-80
2022/05/09 06:11:57;;;;;;;5.63;3.00;;;;;;;13.78;55.07;99945.38;5029719;28;20405;-80
2022/05/09 06:14:22;;;;;;;9.50;4.05;;;;;;;13.78;55.20;99948.06;4978001;28;20030;-80
2022/05/09 06:16:47;;;;;;;5.35;3.22;;;;;;;13.81;55.25;99944.88;5009651;28;20037;-80
2022/05/09 06:19:13;;;;;;;8.55;4.22;;;;;;;13.94;54.91;99944.56;5007148;28;20044;-80
2022/05/09 06:21:38;;;;;;;4.93;3.35;;;;;;;14.02;55.30;99947.66;4991805;28;20026;-80
2022/05/09 06:24:05;;;;;;;8.70;3.67;;;;;;;14.06;54.95;99942.63;4966880;28;20159;-81
2022/05/09 06:26:32;;;;;;;6.72;3.75;;;;;;;14.12;55.32;99949.72;5002190;28;20143;-80
2022/05/09 06:28:57;;;;;;;6.88;3.38;;;;;;;14.12;54.83;99944.34;4986288;28;20032;-80
2022/05/09 06:31:23;;;;;;;4.70;3.40;;;;;;;14.17;54.92;99955.16;4989338;28;20018;-80
2022/05/09 06:33:48;;;;;;;7.50;3.50;;;;;;;14.16;54.52;99945.47;5020375;28;20381;-80
2022/05/09 06:36:13;;;;;;;4.43;3.53;;;;;;;14.16;54.83;99946.28;5010844;28;20036;-80
2022/05/09 06:38:39;;;;;;;4.60;3.28;;;;;;;14.21;54.18;99934.81;5010271;28;20045;-80
2022/05/09 06:41:04;;;;;;;8.77;3.92;;;;;;;14.28;54.46;99947.00;5026518;28;20025;-80
2022/05/09 06:43:30;;;;;;;5.38;3.05;;;;;;;14.26;54.20;99941.06;5004348;28;20048;-81
2022/05/09 06:45:56;;;;;;;8.52;3.05;;;;;;;14.32;54.24;99941.19;5008127;28;20036;-80
2022/05/09 06:48:21;;;;;;;6.00;3.13;;;;;;;14.36;54.06;99943.13;4996100;28;20641;-80
2022/05/09 06:50:47;;;;;;;5.53;3.30;;;;;;;14.41;54.10;99940.53;5009415;28;20030;-80
2022/05/09 06:53:12;;;;;;;8.52;3.20;;;;;;;14.41;54.03;99928.97;5009252;28;20035;-80
2022/05/09 06:55:38;;;;;;;6.05;3.25;;;;;;;14.45;54.00;99930.91;5003654;28;20040;-80
2022/05/09 06:58:13;;;;;;;8.00;3.17;;;;;;;14.51;53.84;99940.66;5021695;28;20449;-80
2022/05/09 07:00:39;;;;;;;7.43;3.40;;;;;;;14.56;53.81;99935.38;5003708;28;20029;-81
2022/05/09 07:03:05;;;;;;;6.93;3.03;;;;;;;14.72;53.54;99942.56;5022207;28;20041;-80
2022/05/09 07:05:31;;;;;;;6.35;3.10;;;;;;;14.72;53.48;99941.78;5009176;28;20086;-80
2022/05/09 07:07:57;;;;;;;4.90;3.22;;;;;;;14.74;53.25;99940.44;5024061;28;20022;-81
2022/05/09 07:10:26;;;;;;;10.32;3.20;;;;;;;14.78;53.15;99933.53;5006472;28;20500;-81
2022/05/09 07:12:53;;;;;;;6.38;2.75;;;;;;;14.72;53.59;99925.66;4992182;28;20401;-80
2022/05/09 07:15:25;;;;;;;5.90;2.78;;;;;;;14.87;53.31;99933.91;5005563;28;20068;-81
2022/05/09 07:17:51;;;;;;;7.07;3.50;;;;;;;14.94;53.22;99942.59;5008223;28;20045;-80
2022/05/09 07:20:22;;;;;;;5.57;3.35;;;;;;;15.05;53.10;99938.16;4992286;28;20064;-80
2022/05/09 07:22:50;;;;;;;9.65;2.95;;;;;;;15.18;52.83;99932.41;5024241;28;20029;-80
2022/05/09 07:25:16;;;;;;;7.68;3.50;;;;;;;15.17;52.64;99922.69;4990703;28;20454;-80
2022/05/09 07:27:42;;;;;;;9.40;3.53;;;;;;;15.30;52.65;99927.69;5005397;28;20025;-80
2022/05/09 07:30:13;;;;;;;7.30;3.65;;;;;;;15.38;52.17;99925.34;5004903;28;20029;-81
2022/05/09 07:32:39;;;;;;;13.63;3.65;;;;;;;15.40;52.33;99920.53;5010269;28;20033;-80
2022/05/09 07:35:06;;;;;;;9.23;3.08;;;;;;;15.43;52.10;99921.91;5008529;28;20153;-80
2022/05/09 07:37:31;;;;;;;6.43;3.08;;;;;;;15.54;52.09;99919.09;5005202;28;20087;-80
2022/05/09 07:39:57;;;;;;;7.90;3.15;;;;;;;15.57;51.63;99921.28;4992049;28;20022;-80
2022/05/09 07:42:22;;;;;;;11.07;2.70;;;;;;;15.63;51.28;99911.38;4992858;28;20489;-81
2022/05/09 07:44:48;;;;;;;6.28;2.83;;;;;;;15.76;51.41;99921.72;5004047;28;20041;-80
2022/05/09 07:47:13;;;;;;;6.07;2.95;;;;;;;15.82;51.11;99914.50;5001284;28;20029;-81
2022/05/09 07:49:39;;;;;;;5.55;2.92;;;;;;;15.88;51.02;99910.81;4986734;28;20039;-80
2022/05/09 07:52:06;;;;;;;11.90;3.45;;;;;;;15.82;51.21;99909.94;5020668;28;20059;-81
2022/05/09 07:54:31;;;;;;;6.03;2.78;;;;;;;16.00;51.09;99920.31;5009802;28;20032;-80
2022/05/09 07:56:57;;;;;;;9.75;3.17;;;;;;;15.99;51.20;99924.06;4996922;28;20033;-80
2022/05/09 07:59:22;;;;;;;8.10;2.75;;;;;;;16.02;50.88;99917.38;4989440;28;20064;-80
2022/05/09 08:01:48;;;;;;;8.13;3.08;;;;;;;16.05;50.74;99912.28;5024861;28;20041;-80
2022/05/09 08:04:13;;;;;;;9.32;3.55;;;;;;;16.23;50.28;99914.56;4978821;28;20033;-81
2022/05/09 08:06:39;;;;;;;12.85;3.38;;;;;;;16.32;50.52;99917.56;5027842;28;20060;-80
2022/05/09 08:09:05;;;;;;;9.65;3.00;;;;;;;16.34;50.50;99918.94;4976069;28;20080;-81
2022/05/09 08:11:30;;;;;;;6.47;2.72;;;;;;;16.34;50.56;99918.94;5007142;28;20025;-81
2022/05/09 08:13:56;;;;;;;7.05;2.95;;;;;;;16.44;50.76;99924.41;5003021;28;20523;-81
2022/05/09 08:16:21;;;;;;;9.70;2.60;;;;;;;16.52;50.42;99914.22;5007105;28;20059;-81
2022/05/09 08:18:47;;;;;;;10.07;2.88;;;;;;;16.53;50.73;99914.00;5007367;28;20071;-80
2022/05/09 08:21:13;;;;;;;4.57;3.00;;;;;;;16.61;50.42;99918.88;5010854;28;20385;-80
2022/05/09 08:23:39;;;;;;;6.70;3.20;;;;;;;16.63;50.35;99914.03;4991994;28;20045;-81
2022/05/09 08:26:04;;;;;;;7.15;3.10;;;;;;;16.77;49.69;99923.28;4989489;28;20135;-80
2022/05/09 08:28:31;;;;;;;8.13;3.65;;;;;;;16.76;50.11;99918.13;4989674;28;20091;-81
2022/05/09 08:30:57;;;;;;;5.65;3.28;;;;;;;16.97;49.70;99909.88;5009418;28;20026;-80
2022/05/09 08:33:26;;;;;;;5.05;3.25;;;;;;;16.98;50.11;99919.59;4996569;28;20033;-80
2022/05/09 08:35:53;;;;;;;6.18;3.08;;;;;;;16.94;49.96;99920.38;5026526;28;20432;-81
2022/05/09 08:38:19;;;;;;;15.00;3.42;;;;;;;17.09;50.06;99920.44;5008749;28;20029;-80
2022/05/09 08:41:02;;;;;;;9.23;3.65;;;;;;;17.24;49.70;99912.41;5015044;28;20120;-81
2022/05/09 08:43:37;;;;;;;13.23;3.83;;;;;;;17.24;50.03;99926.72;5011525;28;20084;-81
2022/05/09 08:46:13;;;;;;;12.73;3.13;;;;;;;17.41;49.64;99923.75;5007586;28;20030;-81
2022/05/09 08:49:00;;;;;;;8.35;3.50;;;;;;;17.37;49.49;99914.59;5029275;28;20037;-80
2022/05/09 08:52:10;;;;;;;9.35;3.13;;;;;;;17.43;49.25;99907.34;5029557;28;20133;-81
2022/05/09 08:54:37;;;;;;;7.85;3.30;;;;;;;17.54;49.07;99904.38;4993346;28;20034;-80
2022/05/09 08:57:08;;;;;;;8.60;3.35;;;;;;;17.66;49.54;99904.97;4994845;28;20037;-80
2022/05/09 08:59:38;;;;;;;10.18;3.17;;;;;;;17.82;48.96;99903.88;5010152;28;20076;-80
2022/05/09 09:02:34;;;;;;;8.73;3.63;;;;;;;17.97;48.98;99905.78;5011438;28;20025;-80
2022/05/09 09:05:03;;;;;;;6.07;2.90;;;;;;;18.03;48.72;99904.69;5011897;28;20037;-81
2022/05/09 09:07:41;;;;;;;5.45;3.03;;;;;;;18.05;49.39;99897.13;5010330;28;20033;-81
2022/05/09 09:10:19;;;;;;;7.07;3.20;;;;;;;18.01;49.33;99897.94;5008832;28;20025;-80
2022/05/09 09:13:00;;;;;;;11.48;4.22;;;;;;;18.27;48.63;99907.63;5029176;28;20474;-80
2022/05/09 09:15:34;;;;;;;7.43;2.83;;;;;;;18.49;48.29;99897.34;5027129;28;20128;-80
2022/05/09 09:18:17;;;;;;;8.20;2.90;;;;;;;18.43;48.78;99893.84;5027695;28;20029;-80
2022/05/09 09:20:58;;;;;;;5.72;2.65;;;;;;;18.51;48.97;99900.59;5014302;28;20030;-80
2022/05/09 09:23:58;;;;;;;5.20;3.03;;;;;;;18.74;48.58;99902.69;5012526;28;20147;-80
2022/05/09 09:26:50;;;;;;;6.30;2.90;;;;;;;18.76;48.50;99894.31;5006465;28;20116;-81
2022/05/09 09:29:25;;;;;;;4.45;2.90;;;;;;;18.77;48.77;99894.03;5024596;28;20049;-80
2022/05/09 09:32:06;;;;;;;5.87;2.83;;;;;;;18.89;48.45;99893.72;5030872;28;20025;-81
2022/05/09 09:34:55;;;;;;;4.75;2.75;;;;;;;19.04;48.53;99889.06;5024291;28;20634;-81
2022/05/09 09:37:32;;;;;;;7.55;3.28;;;;;;;19.01;48.04;99886.88;5029163;28;20029;-81
2022/05/09 09:39:58;;;;;;;7.57;2.80;;;;;;;18.98;48.23;99878.53;5028375;28;20452;-81
2022/05/09 09:42:24;;;;;;;11.85;3.25;;;;;;;19.01;47.94;99880.66;5008274;28;20037;-80
2022/05/09 09:44:51;;;;;;;8.82;2.95;;;;;;;19.13;47.80;99876.53;5010541;28;20117;-81
2022/05/09 09:47:19;;;;;;;8.63;2.83;;;;;;;19.25;47.96;99882.44;4995773;28;20053;-82
2022/05/09 09:49:49;;;;;;;10.43;3.38;;;;;;;19.39;47.85;99874.53;5001762;28;20033;-82
2022/05/09 09:52:28;;;;;;;9.27;3.08;;;;;;;19.56;47.69;99876.84;4984351;28;20059;-82
2022/05/09 09:55:13;;;;;;;7.78;3.38;;;;;;;19.67;47.67;99876.50;5030397;28;20057;-82
2022/05/09 09:57:38;;;;;;;7.22;3.08;;;;;;;19.81;47.48;99872.03;5004185;28;20424;-82
2022/05/09 10:00:19;;;;;;;7.72;2.80;;;;;;;19.92;47.33;99870.84;4992586;28;20029;-82
2022/05/09 10:02:48;;;;;;;10.02;2.80;;;;;;;20.01;47.05;99863.72;5029547;28;20025;-82
2022/05/09 10:05:17;;;;;;;13.77;3.00;;;;;;;20.11;47.07;99871.78;5009414;28;20077;-81
2022/05/09 10:07:44;;;;;;;9.68;2.95;;;;;;;20.11;47.37;99866.38;5026348;28;20108;-82
2022/05/09 10:10:23;;;;;;;6.13;3.05;;;;;;;20.09;47.04;99862.31;5016843;28;20053;-81
2022/05/09 10:12:51;;;;;;;8.65;3.13;;;;;;;20.10;46.98;99856.59;5005983;28;20124;-81
2022/05/09 10:15:35;;;;;;;5.25;3.00;;;;;;;20.25;46.11;99857.59;5021343;28;20056;-82
2022/05/09 10:18:24;;;;;;;12.90;3.60;;;;;;;20.34;46.20;99848.53;5026267;28;20025;-81
2022/05/09 10:20:51;;;;;;;9.02;2.47;;;;;;;20.47;45.74;99849.72;5021102;28;20482;-82
2022/05/09 10:26:37;;;;;;;7.10;2.80;;;;;;;20.80;45.01;99843.38;5028306;28;20032;-82
2022/05/09 10:29:16;;;;;;;9.77;3.03;;;;;;;20.86;45.49;99840.28;5020456;28;20037;-82
2022/05/09 10:31:56;;;;;;;7.53;2.70;;;;;;;20.97;45.22;99845.59;4995346;28;20095;-82
2022/05/09 10:34:40;;;;;;;4.78;2.63;;;;;;;21.10;44.29;99842.19;4999229;28;20112;-82
2022/05/09 10:37:15;;;;;;;4.80;3.00;;;;;;;21.22;44.24;99837.94;5028222;28;20355;-82
2022/05/09 10:39:45;;;;;;;4.65;2.70;;;;;;;21.23;44.98;99833.31;5007589;28;20032;-82
2022/05/09 10:42:13;;;;;;;6.55;2.47;;;;;;;21.27;45.21;99839.78;5021730;28;20035;-82
2022/05/09 10:44:46;;;;;;;4.07;2.95;;;;;;;21.32;44.99;99834.25;5023549;28;20100;-82
2022/05/09 10:47:37;;;;;;;3.15;2.22;;;;;;;21.42;44.79;99837.66;5019289;28;20422;-82
2022/05/09 10:50:15;;;;;;;9.63;2.80;;;;;;;21.46;44.89;99833.22;5029811;28;20025;-82
2022/05/09 10:52:55;;;;;;;4.53;2.50;;;;;;;21.55;44.57;99819.78;5024190;28;20037;-82
2022/05/09 10:55:34;;;;;;;5.43;2.80;;;;;;;21.67;44.21;99815.50;5025135;28;20474;-82
2022/05/09 10:58:25;;;;;;;7.45;3.00;;;;;;;21.80;43.84;99813.91;5028570;28;20047;-82
2022/05/09 11:00:56;;;;;;;6.88;2.47;;;;;;;21.86;44.03;99811.94;5007284;28;20422;-82
2022/05/09 11:03:34;;;;;;;6.18;2.60;;;;;;;22.01;43.97;99811.69;5005307;28;20040;-82
2022/05/09 11:06:18;;;;;;;3.35;2.13;;;;;;;22.10;43.97;99810.69;5006232;28;20444;-82
2022/05/09 11:09:02;;;;;;;5.53;2.53;;;;;;;22.18;43.76;99799.09;5001229;28;20082;-83
2022/05/09 11:11:52;;;;;;;4.00;2.15;;;;;;;22.30;43.97;99798.63;5009299;28;20389;-83
2022/05/09 11:14:39;;;;;;;7.95;2.78;;;;;;;22.40;43.83;99798.41;5010806;28;20234;-83
2022/05/09 11:17:12;;;;;;;7.03;3.35;;;;;;;22.49;43.39;99791.16;5003183;28;20408;-82
2022/05/09 11:20:03;;;;;;;7.15;2.88;;;;;;;22.59;43.50;99798.28;5008271;28;20061;-82
2022/05/09 11:22:35;;;;;;;6.45;2.40;;;;;;;22.70;43.19;99794.28;5008575;28;20059;-82
2022/05/09 11:25:32;;;;;;;3.15;2.50;;;;;;;22.82;43.31;99794.56;5026933;28;20530;-82
2022/05/09 11:28:26;;;;;;;6.22;2.72;;;;;;;22.94;42.95;99781.22;5005186;28;20033;-82
2022/05/09 11:31:09;;;;;;;6.50;2.53;;;;;;;22.96;42.80;99782.53;5023918;28;20100;-82
2022/05/09 11:34:03;;;;;;;4.05;2.45;;;;;;;23.05;42.24;99786.13;5011691;28;20121;-82
2022/05/09 11:36:38;;;;;;;6.47;3.20;;;;;;;23.17;42.42;99773.91;5005649;28;20048;-82
2022/05/09 11:39:03;;;;;;;4.95;2.40;;;;;;;23.23;42.35;99778.09;5018677;28;20025;-82
2022/05/09 11:41:48;;;;;;;5.60;3.03;;;;;;;23.31;41.96;99778.16;5011496;28;20473;-82
2022/05/09 11:44:32;;;;;;;7.10;2.53;;;;;;;23.42;41.82;99768.66;5004723;28;20297;-82
2022/05/09 11:47:04;;;;;;;6.53;2.55;;;;;;;23.60;41.58;99761.41;5008061;28;20057;-82
2022/05/09 11:49:46;;;;;;;5.72;2.42;;;;;;;23.68;42.17;99766.91;5032578;28;20381;-82
2022/05/09 11:52:27;;;;;;;7.60;2.55;;;;;;;23.77;41.62;99761.50;5027360;28;20025;-82
2022/05/09 11:55:04;;;;;;;3.78;2.25;;;;;;;23.81;41.61;99755.09;4986310;28;20061;-82